createdAt,value
2023-03-01T00:00:08.773Z,2.53
2023-03-01T00:01:18.578Z,2.53
2023-03-01T00:02:31.291Z,2.51
2023-03-01T00:03:35.512Z,2.50
2023-03-01T00:04:38.028Z,2.49
2023-03-01T00:05:44.992Z,2.46
2023-03-01T00:06:48.290Z,2.46
2023-03-01T00:07:53.500Z,2.45
2023-03-01T00:08:57.743Z,2.46
2023-03-01T00:09:59.393Z,2.43
2023-03-01T00:11:03.893Z,2.44
2023-03-01T00:12:06.816Z,2.44
2023-03-01T00:13:09.360Z,2.44
2023-03-01T00:14:17.129Z,2.44
2023-03-01T00:15:19.637Z,2.41
2023-03-01T00:16:24.388Z,2.41
2023-03-01T00:17:26.937Z,2.41
2023-03-01T00:18:28.498Z,2.41
2023-03-01T00:19:33.369Z,2.40
2023-03-01T00:20:35.152Z,2.39
2023-03-01T00:21:37.752Z,2.38
2023-03-01T00:22:39.422Z,2.37
2023-03-01T00:23:42.606Z,2.37
2023-03-01T00:24:45.571Z,2.34
2023-03-01T00:25:48.088Z,2.34
2023-03-01T00:26:54.027Z,2.32
2023-03-01T00:27:56.515Z,2.30
2023-03-01T00:28:59.927Z,2.30
2023-03-01T00:30:03.698Z,2.29
2023-03-01T00:31:06.421Z,2.29
2023-03-01T00:32:09.356Z,2.27
2023-03-01T00:33:10.952Z,2.28
2023-03-01T00:34:14.267Z,2.26
2023-03-01T00:35:16.346Z,2.26
2023-03-01T00:36:18.853Z,2.25
2023-03-01T00:37:21.764Z,2.23
2023-03-01T00:38:24.240Z,2.23
2023-03-01T00:39:25.811Z,2.22
2023-03-01T00:40:31.071Z,2.21
2023-03-01T00:41:41.182Z,2.20
2023-03-01T00:42:43.890Z,2.19
2023-03-01T00:43:46.342Z,2.19
2023-03-01T00:44:48.883Z,2.18
2023-03-01T00:45:50.499Z,2.17
2023-03-01T00:46:53.050Z,2.15
2023-03-01T00:47:55.125Z,2.15
2023-03-01T00:48:58.084Z,2.16
2023-03-01T00:49:59.646Z,2.15
2023-03-01T00:51:07.642Z,2.14
2023-03-01T00:52:19.294Z,2.14
2023-03-01T00:53:21.816Z,2.12
2023-03-01T00:54:23.330Z,2.12
2023-03-01T00:55:26.359Z,2.10
2023-03-01T00:56:30.747Z,2.09
2023-03-01T00:57:34.280Z,2.11
2023-03-01T00:58:36.636Z,2.10
2023-03-01T00:59:39.134Z,2.09
2023-03-01T01:00:40.641Z,2.07
2023-03-01T01:01:53.269Z,2.06
2023-03-01T01:02:54.901Z,2.05
2023-03-01T01:04:00.017Z,2.05
2023-03-01T01:05:11.806Z,2.06
2023-03-01T01:06:19.398Z,2.05
2023-03-01T01:07:20.966Z,2.02
2023-03-01T01:08:23.766Z,2.02
2023-03-01T01:09:25.345Z,2.01
2023-03-01T01:10:28.065Z,1.99
2023-03-01T01:11:31.280Z,1.99
2023-03-01T01:12:33.850Z,1.97
2023-03-01T01:13:35.545Z,1.97
2023-03-01T01:14:38.131Z,1.96
2023-03-01T01:15:40.027Z,1.94
2023-03-01T01:16:42.650Z,1.95
2023-03-01T01:17:44.659Z,1.93
2023-03-01T01:18:47.632Z,1.93
2023-03-01T01:19:49.209Z,1.91
2023-03-01T01:20:51.863Z,1.92
2023-03-01T01:21:54.036Z,1.89
2023-03-01T01:23:07.631Z,1.89
2023-03-01T01:24:10.186Z,1.88
2023-03-01T01:25:12.846Z,1.88
2023-03-01T01:26:16.440Z,1.87
2023-03-01T01:27:20.317Z,1.86
2023-03-01T01:28:21.880Z,1.85
2023-03-01T01:29:24.528Z,1.85
2023-03-01T01:30:33.596Z,1.86
2023-03-01T01:31:37.510Z,1.85
2023-03-01T01:32:39.641Z,1.85
2023-03-01T01:33:42.239Z,1.86
2023-03-01T01:34:43.826Z,1.86
2023-03-01T01:35:56.421Z,1.86
2023-03-01T01:37:09.194Z,1.85
2023-03-01T01:38:11.102Z,1.84
2023-03-01T01:39:13.999Z,1.83
2023-03-01T01:40:15.625Z,1.82
2023-03-01T01:41:18.167Z,1.80
2023-03-01T01:42:21.096Z,1.79
2023-03-01T01:43:26.007Z,1.79
2023-03-01T01:44:29.716Z,1.77
2023-03-01T01:45:35.656Z,1.78
2023-03-01T01:46:39.978Z,1.78
2023-03-01T01:47:42.850Z,1.78
2023-03-01T01:48:47.719Z,1.77
2023-03-01T01:49:53.744Z,1.77
2023-03-01T01:51:00.241Z,1.77
2023-03-01T01:52:11.562Z,1.76
2023-03-01T01:53:19.380Z,1.75
2023-03-01T01:54:25.342Z,1.74
2023-03-01T01:55:28.548Z,1.74
2023-03-01T01:56:32.247Z,1.74
2023-03-01T01:57:38.886Z,1.72
2023-03-01T01:58:43.574Z,1.73
2023-03-01T01:59:50.515Z,1.73
2023-03-01T02:00:53.090Z,1.73
2023-03-01T02:02:00.478Z,1.71
2023-03-01T02:03:06.514Z,1.70
2023-03-01T02:04:17.803Z,1.71
2023-03-01T02:05:25.488Z,1.72
2023-03-01T02:06:31.848Z,1.72
2023-03-01T02:07:33.773Z,1.71
2023-03-01T02:08:40.508Z,1.70
2023-03-01T02:09:46.181Z,1.67
2023-03-01T02:10:51.397Z,1.66
2023-03-01T02:11:54.930Z,1.63
2023-03-01T02:12:59.644Z,1.63
2023-03-01T02:14:01.478Z,1.60
2023-03-01T02:15:04.274Z,1.58
2023-03-01T02:16:09.329Z,1.57
2023-03-01T02:17:13.140Z,1.56
2023-03-01T02:18:18.228Z,1.55
2023-03-01T02:19:33.765Z,1.53
2023-03-01T02:25:28.397Z,1.42
2023-03-01T02:26:37.834Z,1.40
2023-03-01T02:27:51.206Z,1.38
2023-03-01T02:28:54.250Z,1.37
2023-03-01T02:29:57.782Z,1.35
2023-03-01T02:31:18.047Z,1.34
2023-03-01T02:32:25.907Z,1.33
2023-03-01T02:33:28.231Z,1.33
2023-03-01T02:34:33.226Z,1.32
2023-03-01T02:35:38.663Z,1.32
2023-03-01T02:36:44.815Z,1.32
2023-03-01T02:37:48.006Z,1.31
2023-03-01T02:38:54.030Z,1.31
2023-03-01T02:40:00.168Z,1.31
2023-03-01T02:41:06.555Z,1.31
2023-03-01T02:42:11.950Z,1.31
2023-03-01T02:43:15.086Z,1.29
2023-03-01T02:44:18.413Z,1.30
2023-03-01T02:45:22.047Z,1.29
2023-03-01T02:46:25.652Z,1.29
2023-03-01T02:47:28.249Z,1.30
2023-03-01T02:48:40.850Z,1.29
2023-03-01T02:49:43.338Z,1.30
2023-03-01T02:51:04.403Z,1.29
2023-03-01T02:52:22.823Z,1.30
2023-03-01T02:53:32.891Z,1.31
2023-03-01T02:54:41.370Z,1.31
2023-03-01T02:55:42.950Z,1.29
2023-03-01T02:56:49.096Z,1.28
2023-03-01T02:57:52.534Z,1.27
2023-03-01T02:58:54.124Z,1.27
2023-03-01T03:00:01.530Z,1.26
2023-03-01T03:01:05.592Z,1.25
2023-03-01T03:02:08.657Z,1.25
2023-03-01T03:03:13.263Z,1.23
2023-03-01T03:04:18.686Z,1.22
2023-03-01T03:05:23.019Z,1.22
2023-03-01T03:06:25.502Z,1.21
2023-03-01T03:07:27.162Z,1.21
2023-03-01T03:08:29.824Z,1.20
2023-03-01T03:09:31.366Z,1.18
2023-03-01T03:10:37.094Z,1.18
2023-03-01T03:11:49.003Z,1.18
2023-03-01T03:12:52.978Z,1.18
2023-03-01T03:13:54.952Z,1.16
2023-03-01T03:14:58.846Z,1.16
2023-03-01T03:16:00.412Z,1.15
2023-03-01T03:17:07.338Z,1.14
2023-03-01T03:18:13.297Z,1.13
2023-03-01T03:19:17.483Z,1.14
2023-03-01T03:20:21.607Z,1.14
2023-03-01T03:21:24.102Z,1.14
2023-03-01T03:22:25.863Z,1.12
2023-03-01T03:23:30.349Z,1.12
2023-03-01T03:24:39.040Z,1.12
2023-03-01T03:25:42.086Z,1.14
2023-03-01T03:26:43.604Z,1.13
2023-03-01T03:27:48.778Z,1.13
2023-03-01T03:28:50.343Z,1.12
2023-03-01T03:29:52.811Z,1.11
2023-03-01T03:30:55.766Z,1.11
2023-03-01T03:31:59.064Z,1.11
2023-03-01T03:33:00.972Z,1.10
2023-03-01T03:34:05.590Z,1.09
2023-03-01T03:35:10.268Z,1.09
2023-03-01T03:36:18.645Z,1.07
2023-03-01T03:37:35.146Z,1.09
2023-03-01T03:38:37.654Z,1.07
2023-03-01T03:39:39.191Z,1.06
2023-03-01T03:40:43.462Z,1.04
2023-03-01T03:41:44.978Z,1.03
2023-03-01T03:42:47.510Z,1.02
2023-03-01T03:43:51.307Z,1.00
2023-03-01T03:45:01.199Z,1.01
2023-03-01T03:46:06.925Z,0.99
2023-03-01T03:47:08.589Z,1.00
2023-03-01T03:48:11.903Z,0.98
2023-03-01T03:49:13.508Z,0.98
2023-03-01T03:50:18.482Z,0.98
2023-03-01T03:51:20.085Z,0.97
2023-03-01T03:52:22.661Z,0.97
2023-03-01T03:53:27.466Z,0.95
2023-03-01T03:54:29.040Z,0.96
2023-03-01T03:55:31.688Z,0.94
2023-03-01T03:56:34.686Z,0.94
2023-03-01T03:57:38.416Z,0.94
2023-03-01T03:58:41.148Z,0.93
2023-03-01T03:59:42.735Z,0.93
2023-03-01T04:00:46.514Z,0.92
2023-03-01T04:01:59.969Z,0.92
2023-03-01T04:03:02.471Z,0.91
2023-03-01T04:04:05.321Z,0.90
2023-03-01T04:05:09.877Z,0.89
2023-03-01T04:06:11.446Z,0.90
2023-03-01T04:07:24.056Z,0.89
2023-03-01T04:08:26.357Z,0.89
2023-03-01T04:09:31.066Z,0.88
2023-03-01T04:10:34.577Z,0.88
2023-03-01T04:11:47.084Z,0.89
2023-03-01T04:12:53.993Z,0.87
2023-03-01T04:13:58.112Z,0.87
2023-03-01T04:15:00.241Z,0.85
2023-03-01T04:16:02.897Z,0.85
2023-03-01T04:17:06.180Z,0.84
2023-03-01T04:18:09.118Z,0.84
2023-03-01T04:19:21.643Z,0.86
2023-03-01T04:20:26.795Z,0.84
2023-03-01T04:21:29.382Z,0.84
2023-03-01T04:22:32.902Z,0.83
2023-03-01T04:23:36.052Z,0.84
2023-03-01T04:24:37.625Z,0.83
2023-03-01T04:25:41.362Z,0.83
2023-03-01T04:26:42.865Z,0.81
2023-03-01T04:27:45.530Z,0.82
2023-03-01T04:28:49.004Z,0.81
2023-03-01T04:29:51.508Z,0.81
2023-03-01T04:30:53.665Z,0.81
2023-03-01T04:31:58.542Z,0.82
2023-03-01T04:33:06.377Z,0.82
2023-03-01T04:34:09.124Z,0.81
2023-03-01T04:35:10.805Z,0.82
2023-03-01T04:36:14.759Z,0.81
2023-03-01T04:37:18.636Z,0.82
2023-03-01T04:38:22.284Z,0.82
2023-03-01T04:39:23.951Z,0.82
2023-03-01T04:40:26.798Z,0.81
2023-03-01T04:41:28.472Z,0.81
2023-03-01T04:42:31.008Z,0.80
2023-03-01T04:43:32.898Z,0.78
2023-03-01T04:44:35.443Z,0.79
2023-03-01T04:45:37.427Z,0.80
2023-03-01T04:46:39.999Z,0.79
2023-03-01T04:47:43.662Z,0.78
2023-03-01T04:48:48.643Z,0.78
2023-03-01T04:49:50.251Z,0.78
2023-03-01T04:50:52.866Z,0.77
2023-03-01T04:52:04.080Z,0.78
2023-03-01T04:53:06.631Z,0.78
2023-03-01T04:54:09.643Z,0.76
2023-03-01T04:55:12.743Z,0.75
2023-03-01T04:56:15.347Z,0.75
2023-03-01T04:57:17.927Z,0.73
2023-03-01T04:58:19.715Z,0.73
2023-03-01T04:59:23.664Z,0.74
2023-03-01T05:00:25.715Z,0.74
2023-03-01T05:01:29.283Z,0.74
2023-03-01T05:02:30.835Z,0.75
2023-03-01T05:03:33.369Z,0.76
2023-03-01T05:04:36.403Z,0.76
2023-03-01T05:05:40.451Z,0.77
2023-03-01T05:06:46.847Z,0.77
2023-03-01T05:07:49.403Z,0.76
2023-03-01T05:08:51.444Z,0.76
2023-03-01T05:09:55.097Z,0.75
2023-03-01T05:10:56.683Z,0.75
2023-03-01T05:11:59.148Z,0.75
2023-03-01T05:13:00.832Z,0.74
2023-03-01T05:14:03.837Z,0.73
2023-03-01T05:15:07.898Z,0.71
2023-03-01T05:16:17.805Z,0.72
2023-03-01T05:17:19.771Z,0.72
2023-03-01T05:18:26.638Z,0.71
2023-03-01T05:19:28.448Z,0.71
2023-03-01T05:20:32.450Z,0.69
2023-03-01T05:21:34.700Z,0.68
2023-03-01T05:22:37.594Z,0.68
2023-03-01T05:23:40.770Z,0.66
2023-03-01T05:24:42.307Z,0.66
2023-03-01T05:25:53.210Z,0.64
2023-03-01T05:26:56.377Z,0.65
2023-03-01T05:27:58.867Z,0.63
2023-03-01T05:29:01.048Z,0.64
2023-03-01T05:30:14.172Z,0.63
2023-03-01T05:31:15.856Z,0.62
2023-03-01T05:32:18.489Z,0.61
2023-03-01T05:33:20.307Z,0.61
2023-03-01T05:34:26.242Z,0.61
2023-03-01T05:35:28.064Z,0.61
2023-03-01T05:36:41.948Z,0.62
2023-03-01T05:37:45.694Z,0.61
2023-03-01T05:38:47.681Z,0.63
2023-03-01T05:39:51.245Z,0.63
2023-03-01T05:40:53.742Z,0.63
2023-03-01T05:41:57.319Z,0.62
2023-03-01T05:43:06.073Z,0.62
2023-03-01T05:44:07.943Z,0.63
2023-03-01T05:45:13.210Z,0.64
2023-03-01T05:46:16.030Z,0.62
2023-03-01T05:47:18.565Z,0.61
2023-03-01T05:48:20.490Z,0.62
2023-03-01T05:49:24.798Z,0.60
2023-03-01T05:50:40.013Z,0.60
2023-03-01T05:51:43.520Z,0.60
2023-03-01T05:52:46.189Z,0.59
2023-03-01T05:53:48.653Z,0.58
2023-03-01T05:54:50.632Z,0.58
2023-03-01T05:55:53.158Z,0.58
2023-03-01T05:56:54.650Z,0.58
2023-03-01T05:57:57.231Z,0.57
2023-03-01T05:59:01.869Z,0.57
2023-03-01T06:00:07.213Z,0.57
2023-03-01T06:01:13.249Z,0.57
2023-03-01T06:02:15.758Z,0.56
2023-03-01T06:03:18.740Z,0.57
2023-03-01T06:04:22.018Z,0.58
2023-03-01T06:05:28.185Z,0.58
2023-03-01T06:06:31.374Z,0.60
2023-03-01T06:07:44.831Z,0.59
2023-03-01T06:08:56.719Z,0.59
2023-03-01T06:09:58.221Z,0.58
2023-03-01T06:11:00.689Z,0.56
2023-03-01T06:12:02.199Z,0.58
2023-03-01T06:13:04.993Z,0.56
2023-03-01T06:14:07.403Z,0.57
2023-03-01T06:15:15.755Z,0.57
2023-03-01T06:16:28.487Z,0.57
2023-03-01T06:17:31.095Z,0.56
2023-03-01T06:18:33.784Z,0.57
2023-03-01T06:19:35.305Z,0.55
2023-03-01T06:20:37.828Z,0.55
2023-03-01T06:21:39.392Z,0.55
2023-03-01T06:22:42.691Z,0.55
2023-03-01T06:23:49.896Z,0.55
2023-03-01T06:25:02.433Z,0.53
2023-03-01T06:26:07.294Z,0.54
2023-03-01T06:27:13.860Z,0.53
2023-03-01T06:28:17.409Z,0.53
2023-03-01T06:29:21.160Z,0.52
2023-03-01T06:30:24.295Z,0.52
2023-03-01T06:31:36.779Z,0.55
2023-03-01T06:32:38.754Z,0.53
2023-03-01T06:33:41.284Z,0.53
2023-03-01T06:34:43.079Z,0.54
2023-03-01T06:35:45.689Z,0.53
2023-03-01T06:36:47.504Z,0.55
2023-03-01T06:37:50.426Z,0.55
2023-03-01T06:38:54.295Z,0.57
2023-03-01T06:39:56.283Z,0.60
2023-03-01T06:40:58.916Z,0.60
2023-03-01T06:42:00.850Z,0.61
2023-03-01T06:43:03.438Z,0.62
2023-03-01T06:44:04.986Z,0.64
2023-03-01T06:45:09.191Z,0.66
2023-03-01T06:46:11.723Z,0.66
2023-03-01T06:47:13.464Z,0.68
2023-03-01T06:48:16.072Z,0.69
2023-03-01T06:49:18.757Z,0.70
2023-03-01T06:50:21.361Z,0.71
2023-03-01T06:51:22.892Z,0.72
2023-03-01T06:52:25.455Z,0.75
2023-03-01T06:53:28.135Z,0.76
2023-03-01T06:54:31.369Z,0.78
2023-03-01T06:55:34.851Z,0.81
2023-03-01T06:56:37.477Z,0.83
2023-03-01T06:57:39.282Z,0.85
2023-03-01T06:58:42.382Z,0.88
2023-03-01T06:59:44.407Z,0.89
2023-03-01T07:00:46.904Z,0.91
2023-03-01T07:01:48.533Z,0.93
2023-03-01T07:02:51.106Z,0.96
2023-03-01T07:03:53.207Z,0.98
2023-03-01T07:04:55.974Z,1.00
2023-03-01T07:06:08.687Z,1.03
2023-03-01T07:07:11.600Z,1.06
2023-03-01T07:08:13.181Z,1.09
2023-03-01T07:09:20.612Z,1.11
2023-03-01T07:10:23.839Z,1.14
2023-03-01T07:11:26.360Z,1.17
2023-03-01T07:12:27.984Z,1.18
2023-03-01T07:13:31.972Z,1.21
2023-03-01T07:14:35.792Z,1.24
2023-03-01T07:15:38.883Z,1.23
2023-03-01T07:16:40.608Z,1.25
2023-03-01T07:17:45.387Z,1.26
2023-03-01T07:18:47.393Z,1.29
2023-03-01T07:19:50.077Z,1.29
2023-03-01T07:20:52.529Z,1.31
2023-03-01T07:21:59.612Z,1.33
2023-03-01T07:23:02.093Z,1.34
2023-03-01T07:24:05.350Z,1.34
2023-03-01T07:25:07.484Z,1.35
2023-03-01T07:26:11.327Z,1.35
2023-03-01T07:27:22.894Z,1.36
2023-03-01T07:28:36.840Z,1.39
2023-03-01T07:29:38.826Z,1.40
2023-03-01T07:30:41.304Z,1.41
2023-03-01T07:31:42.850Z,1.43
2023-03-01T07:32:52.694Z,1.45
2023-03-01T07:33:55.520Z,1.47
2023-03-01T07:34:58.123Z,1.48
2023-03-01T07:36:01.070Z,1.49
2023-03-01T07:37:03.551Z,1.51
2023-03-01T07:38:05.439Z,1.54
2023-03-01T07:39:19.631Z,1.54
2023-03-01T07:40:22.481Z,1.55
2023-03-01T07:41:25.465Z,1.58
2023-03-01T07:42:27.932Z,1.58
2023-03-01T07:43:29.862Z,1.58
2023-03-01T07:44:32.390Z,1.59
2023-03-01T07:45:34.874Z,1.60
2023-03-01T07:46:47.328Z,1.62
2023-03-01T07:47:59.866Z,1.64
2023-03-01T07:49:01.490Z,1.65
2023-03-01T07:50:04.838Z,1.67
2023-03-01T07:51:08.496Z,1.69
2023-03-01T07:52:13.650Z,1.72
2023-03-01T07:53:16.328Z,1.73
2023-03-01T07:54:18.960Z,1.76
2023-03-01T07:55:21.933Z,1.78
2023-03-01T07:56:35.758Z,1.82
2023-03-01T07:57:37.333Z,1.83
2023-03-01T07:58:41.342Z,1.85
2023-03-01T07:59:43.828Z,1.86
2023-03-01T08:00:46.298Z,1.89
2023-03-01T08:01:49.094Z,1.90
2023-03-01T08:02:50.654Z,1.91
2023-03-01T08:03:53.172Z,1.93
2023-03-01T08:04:55.660Z,1.94
2023-03-01T08:05:58.147Z,1.96
2023-03-01T08:07:00.846Z,1.97
2023-03-01T08:08:04.258Z,1.99
2023-03-01T08:09:06.015Z,2.00
2023-03-01T08:10:09.435Z,2.03
2023-03-01T08:11:12.967Z,2.05
2023-03-01T08:12:17.774Z,2.06
2023-03-01T08:13:23.238Z,2.08
2023-03-01T08:14:26.014Z,2.12
2023-03-01T08:15:27.560Z,2.14
2023-03-01T08:16:30.341Z,2.17
2023-03-01T08:17:32.113Z,2.18
2023-03-01T08:18:34.744Z,2.21
2023-03-01T08:19:37.542Z,2.24
2023-03-01T08:20:40.157Z,2.26
2023-03-01T08:21:42.652Z,2.28
2023-03-01T08:22:44.162Z,2.30
2023-03-01T08:23:46.760Z,2.32
2023-03-01T08:24:49.609Z,2.34
2023-03-01T08:25:51.210Z,2.37
2023-03-01T08:26:57.726Z,2.38
2023-03-01T08:28:00.579Z,2.41
2023-03-01T08:29:04.053Z,2.44
2023-03-01T08:30:17.187Z,2.47
2023-03-01T08:31:22.558Z,2.49
2023-03-01T08:32:24.164Z,2.51
2023-03-01T08:33:26.784Z,2.53
2023-03-01T08:34:29.292Z,2.56
2023-03-01T08:35:32.062Z,2.57
2023-03-01T08:36:37.941Z,2.61
2023-03-01T08:37:49.834Z,2.65
2023-03-01T08:38:52.728Z,2.68
2023-03-01T08:39:55.847Z,2.70
2023-03-01T08:41:01.268Z,2.72
2023-03-01T08:42:04.483Z,2.74
2023-03-01T08:43:08.334Z,2.77
2023-03-01T08:44:13.369Z,2.78
2023-03-01T08:45:18.991Z,2.81
2023-03-01T08:46:21.543Z,2.83
2023-03-01T08:47:24.171Z,2.85
2023-03-01T08:48:25.957Z,2.89
2023-03-01T08:49:28.456Z,2.90
2023-03-01T08:50:30.033Z,2.91
2023-03-01T08:51:33.484Z,2.93
2023-03-01T08:52:36.008Z,2.93
2023-03-01T08:53:37.682Z,2.94
2023-03-01T08:54:40.283Z,2.97
2023-03-01T08:55:42.250Z,3.00
2023-03-01T08:56:47.761Z,3.01
2023-03-01T08:57:49.416Z,3.04
2023-03-01T08:58:53.255Z,3.04
2023-03-01T08:59:57.015Z,3.05
2023-03-01T09:00:58.742Z,3.07
2023-03-01T09:02:06.227Z,3.08
2023-03-01T09:03:07.887Z,3.11
2023-03-01T09:04:13.564Z,3.13
2023-03-01T09:05:15.208Z,3.15
2023-03-01T09:06:18.314Z,3.16
2023-03-01T09:07:21.139Z,3.19
2023-03-01T09:08:22.893Z,3.21
2023-03-01T09:09:25.575Z,3.22
2023-03-01T09:10:27.245Z,3.23
2023-03-01T09:11:30.793Z,3.27
2023-03-01T09:12:33.327Z,3.28
2023-03-01T09:13:36.200Z,3.28
2023-03-01T09:14:42.007Z,3.34
2023-03-01T09:15:43.581Z,3.36
2023-03-01T09:16:46.478Z,3.38
2023-03-01T09:17:48.093Z,3.40
2023-03-01T09:18:52.136Z,3.42
2023-03-01T09:19:53.660Z,3.44
2023-03-01T09:21:03.340Z,3.47
2023-03-01T09:22:13.015Z,3.49
2023-03-01T09:23:14.676Z,3.51
2023-03-01T09:24:17.293Z,3.53
2023-03-01T09:25:19.817Z,3.56
2023-03-01T09:26:24.101Z,3.59
2023-03-01T09:27:26.083Z,3.61
2023-03-01T09:28:30.277Z,3.65
2023-03-01T09:29:32.891Z,3.66
2023-03-01T09:30:36.204Z,3.67
2023-03-01T09:31:38.838Z,3.71
2023-03-01T09:32:51.344Z,3.73
2023-03-01T09:33:55.677Z,3.76
2023-03-01T09:35:05.606Z,3.77
2023-03-01T09:36:11.934Z,3.80
2023-03-01T09:37:15.958Z,3.82
2023-03-01T09:38:18.807Z,3.84
2023-03-01T09:39:22.322Z,3.85
2023-03-01T09:40:28.511Z,3.87
2023-03-01T09:41:45.683Z,3.88
2023-03-01T09:42:54.613Z,3.91
2023-03-01T09:44:00.698Z,3.92
2023-03-01T09:45:06.587Z,3.95
2023-03-01T09:46:13.211Z,3.97
2023-03-01T09:47:20.247Z,4.00
2023-03-01T09:48:35.297Z,4.02
2023-03-01T09:49:42.560Z,4.05
2023-03-01T09:50:47.588Z,4.06
2023-03-01T09:51:57.308Z,4.08
2023-03-01T09:53:03.742Z,4.10
2023-03-01T09:54:09.227Z,4.12
2023-03-01T09:55:14.288Z,4.14
2023-03-01T09:56:22.551Z,4.16
2023-03-01T09:57:33.528Z,4.18
2023-03-01T09:58:53.550Z,4.17
2023-03-01T10:00:29.127Z,4.18
2023-03-01T10:01:37.205Z,4.20
2023-03-01T10:02:43.548Z,4.20
2023-03-01T10:04:02.803Z,4.22
2023-03-01T10:05:17.630Z,4.25
2023-03-01T10:06:34.613Z,4.25
2023-03-01T10:07:46.015Z,4.26
2023-03-01T10:08:58.325Z,4.27
2023-03-01T10:10:01.381Z,4.27
2023-03-01T10:11:05.743Z,4.28
2023-03-01T10:12:12.777Z,4.29
2023-03-01T10:13:20.855Z,4.31
2023-03-01T10:19:08.116Z,4.37
2023-03-01T10:20:19.321Z,4.40
2023-03-01T10:21:22.381Z,4.43
2023-03-01T10:22:30.105Z,4.46
2023-03-01T10:23:36.448Z,4.48
2023-03-01T10:24:39.396Z,4.51
2023-03-01T10:25:52.940Z,4.54
2023-03-01T10:26:58.061Z,4.57
2023-03-01T10:28:07.593Z,4.60
2023-03-01T10:29:11.414Z,4.62
2023-03-01T10:30:20.760Z,4.64
2023-03-01T10:31:29.339Z,4.69
2023-03-01T10:32:33.040Z,4.72
2023-03-01T10:33:41.223Z,4.74
2023-03-01T10:34:45.161Z,4.76
2023-03-01T10:35:48.111Z,4.79
2023-03-01T10:36:54.786Z,4.83
2023-03-01T10:38:05.977Z,4.85
2023-03-01T10:39:16.112Z,4.87
2023-03-01T10:40:19.909Z,4.88
2023-03-01T10:41:24.360Z,4.89
2023-03-01T10:42:33.001Z,4.91
2023-03-01T10:43:46.476Z,4.94
2023-03-01T10:44:51.011Z,4.95
2023-03-01T10:45:52.850Z,4.97
2023-03-01T10:47:01.937Z,4.97
2023-03-01T10:48:14.181Z,4.98
2023-03-01T10:49:18.807Z,4.99
2023-03-01T10:50:24.468Z,5.01
2023-03-01T10:51:26.924Z,5.01
2023-03-01T10:52:34.992Z,5.02
2023-03-01T10:53:39.740Z,5.04
2023-03-01T10:54:42.417Z,5.06
2023-03-01T10:55:45.719Z,5.06
2023-03-01T10:56:49.448Z,5.08
2023-03-01T10:57:52.557Z,5.09
2023-03-01T10:59:04.666Z,5.13
2023-03-01T11:00:23.328Z,5.15
2023-03-01T11:01:36.150Z,5.16
2023-03-01T11:02:38.043Z,5.17
2023-03-01T11:03:41.090Z,5.17
2023-03-01T11:04:59.165Z,5.20
2023-03-01T11:06:11.281Z,5.21
2023-03-01T11:07:13.445Z,5.21
2023-03-01T11:08:16.006Z,5.23
2023-03-01T11:09:22.379Z,5.25
2023-03-01T11:10:26.031Z,5.29
2023-03-01T11:11:33.836Z,5.31
2023-03-01T11:12:42.845Z,5.32
2023-03-01T11:14:00.440Z,5.33
2023-03-01T11:15:04.348Z,5.33
2023-03-01T11:16:11.236Z,5.34
2023-03-01T11:17:19.339Z,5.34
2023-03-01T11:18:31.050Z,5.36
2023-03-01T11:19:39.535Z,5.37
2023-03-01T11:20:41.771Z,5.39
2023-03-01T11:21:53.990Z,5.42
2023-03-01T11:22:59.474Z,5.44
2023-03-01T11:24:04.084Z,5.46
2023-03-01T11:25:10.799Z,5.49
2023-03-01T11:26:15.063Z,5.51
2023-03-01T11:27:23.714Z,5.54
2023-03-01T11:28:29.758Z,5.56
2023-03-01T11:29:47.737Z,5.59
2023-03-01T11:31:07.789Z,5.57
2023-03-01T11:32:17.259Z,5.59
2023-03-01T11:33:25.317Z,5.59
2023-03-01T11:34:40.201Z,5.61
2023-03-01T11:35:45.360Z,5.62
2023-03-01T11:36:54.754Z,5.62
2023-03-01T11:38:06.755Z,5.62
2023-03-01T11:39:21.073Z,5.64
2023-03-01T11:40:27.238Z,5.65
2023-03-01T11:41:33.580Z,5.68
2023-03-01T11:42:48.292Z,5.69
2023-03-01T11:43:56.143Z,5.70
2023-03-01T11:45:04.325Z,5.71
2023-03-01T11:46:46.919Z,5.71
2023-03-01T11:48:06.434Z,5.72
2023-03-01T11:49:28.369Z,5.72
2023-03-01T11:50:36.590Z,5.72
2023-03-01T11:51:50.618Z,5.72
2023-03-01T11:53:07.624Z,5.73
2023-03-01T11:54:23.260Z,5.74
2023-03-01T11:55:37.397Z,5.74
2023-03-01T11:56:46.281Z,5.76
2023-03-01T11:58:13.756Z,5.78
2023-03-01T11:59:51.126Z,5.82
2023-03-01T12:01:10.174Z,5.84
2023-03-01T12:02:42.831Z,5.84
2023-03-01T12:04:12.488Z,5.87
2023-03-01T12:05:44.482Z,5.89
2023-03-01T12:06:56.665Z,5.92
2023-03-01T12:08:12.202Z,5.93
2023-03-01T12:09:35.432Z,5.96
2023-03-01T12:10:48.096Z,5.97
2023-03-01T12:12:14.839Z,6.01
2023-03-01T12:13:32.239Z,6.03
2023-03-01T12:14:57.121Z,6.07
2023-03-01T12:16:38.306Z,6.09
2023-03-01T12:18:32.899Z,6.11
2023-03-01T12:20:00.749Z,6.12
2023-03-01T12:21:15.517Z,6.13
2023-03-01T12:22:30.962Z,6.16
2023-03-01T12:23:53.861Z,6.18
2023-03-01T12:25:28.603Z,6.21
2023-03-01T12:26:33.980Z,6.22
2023-03-01T12:27:53.068Z,6.25
2023-03-01T12:29:16.334Z,6.29
2023-03-01T12:30:37.042Z,6.34
2023-03-01T12:31:55.269Z,6.36
2023-03-01T12:33:11.219Z,6.39
2023-03-01T12:34:30.478Z,6.41
2023-03-01T12:35:54.839Z,6.43
2023-03-01T12:37:14.034Z,6.44
2023-03-01T12:38:27.368Z,6.46
2023-03-01T12:39:50.732Z,6.48
2023-03-01T12:41:30.038Z,6.52
2023-03-01T12:42:48.278Z,6.55
2023-03-01T12:44:02.339Z,6.56
2023-03-01T12:45:26.805Z,6.58
2023-03-01T12:46:42.904Z,6.60
2023-03-01T12:47:59.773Z,6.61
2023-03-01T12:49:10.054Z,6.60
2023-03-01T12:50:16.635Z,6.59
2023-03-01T12:51:25.321Z,6.61
2023-03-01T12:52:37.947Z,6.63
2023-03-01T12:53:43.332Z,6.65
2023-03-01T12:54:48.072Z,6.67
2023-03-01T12:55:52.152Z,6.68
2023-03-01T12:56:56.008Z,6.70
2023-03-01T12:58:14.483Z,6.73
2023-03-01T12:59:23.371Z,6.75
2023-03-01T13:00:29.402Z,6.77
2023-03-01T13:01:47.713Z,6.79
2023-03-01T13:02:54.719Z,6.80
2023-03-01T13:04:12.124Z,6.82
2023-03-01T13:05:28.050Z,6.83
2023-03-01T13:06:43.428Z,6.83
2023-03-01T13:08:00.826Z,6.82
2023-03-01T13:09:09.763Z,6.82
2023-03-01T13:10:21.692Z,6.85
2023-03-01T13:11:25.405Z,6.84
2023-03-01T13:12:47.895Z,6.84
2023-03-01T13:13:53.010Z,6.85
2023-03-01T13:14:56.266Z,6.87
2023-03-01T13:15:59.722Z,6.89
2023-03-01T13:17:01.517Z,6.91
2023-03-01T13:18:06.670Z,6.92
2023-03-01T13:19:14.785Z,6.93
2023-03-01T13:20:19.588Z,6.94
2023-03-01T13:21:32.822Z,6.96
2023-03-01T13:22:39.737Z,6.96
2023-03-01T13:23:50.295Z,6.96
2023-03-01T13:25:02.647Z,6.99
2023-03-01T13:26:12.202Z,6.99
2023-03-01T13:27:30.222Z,7.01
2023-03-01T13:28:48.673Z,7.02
2023-03-01T13:29:53.782Z,7.04
2023-03-01T13:30:55.458Z,7.06
2023-03-01T13:31:59.320Z,7.08
2023-03-01T13:33:41.276Z,7.09
2023-03-01T13:37:38.235Z,7.08
2023-03-01T13:38:47.427Z,7.08
2023-03-01T13:43:05.298Z,7.10
2023-03-01T13:44:27.040Z,7.09
2023-03-01T13:45:39.779Z,7.11
2023-03-01T13:46:41.766Z,7.12
2023-03-01T13:47:47.236Z,7.14
2023-03-01T13:48:53.821Z,7.17
2023-03-01T13:49:58.634Z,7.18
2023-03-01T13:51:04.163Z,7.21
2023-03-01T13:52:06.885Z,7.21
2023-03-01T13:53:18.133Z,7.22
2023-03-01T13:54:28.219Z,7.24
2023-03-01T13:55:38.468Z,7.23
2023-03-01T13:56:41.823Z,7.23
2023-03-01T13:57:47.308Z,7.25
2023-03-01T13:58:54.248Z,7.28
2023-03-01T13:59:57.169Z,7.28
2023-03-01T14:01:01.848Z,7.29
2023-03-01T14:02:03.521Z,7.28
2023-03-01T14:03:11.575Z,7.28
2023-03-01T14:04:23.419Z,7.29
2023-03-01T14:05:24.983Z,7.29
2023-03-01T14:06:31.112Z,7.31
2023-03-01T14:07:34.040Z,7.32
2023-03-01T14:08:38.057Z,7.32
2023-03-01T14:09:43.890Z,7.32
2023-03-01T14:10:55.686Z,7.32
2023-03-01T14:12:08.869Z,7.32
2023-03-01T14:13:26.305Z,7.33
2023-03-01T14:14:50.242Z,7.32
2023-03-01T14:16:11.128Z,7.28
2023-03-01T14:17:47.444Z,7.28
2023-03-01T14:18:58.596Z,7.27
2023-03-01T14:20:06.146Z,7.28
2023-03-01T14:21:09.454Z,7.30
2023-03-01T14:22:21.278Z,7.29
2023-03-01T14:23:27.836Z,7.30
2023-03-01T14:24:31.482Z,7.32
2023-03-01T14:25:36.730Z,7.32
2023-03-01T14:26:38.370Z,7.35
2023-03-01T14:27:43.055Z,7.38
2023-03-01T14:28:45.821Z,7.38
2023-03-01T14:29:56.735Z,7.40
2023-03-01T14:31:02.137Z,7.41
2023-03-01T14:32:20.742Z,7.42
2023-03-01T14:33:28.360Z,7.44
2023-03-01T14:34:29.897Z,7.43
2023-03-01T14:35:34.789Z,7.44
2023-03-01T14:36:36.939Z,7.43
2023-03-01T14:37:41.854Z,7.44
2023-03-01T14:38:46.066Z,7.45
2023-03-01T14:39:49.705Z,7.44
2023-03-01T14:40:57.856Z,7.44
2023-03-01T14:42:07.702Z,7.43
2023-03-01T14:43:24.558Z,7.42
2023-03-01T14:44:26.232Z,7.42
2023-03-01T14:45:31.535Z,7.42
2023-03-01T14:46:37.413Z,7.43
2023-03-01T14:47:43.416Z,7.44
2023-03-01T14:48:46.722Z,7.44
2023-03-01T14:49:51.309Z,7.46
2023-03-01T14:50:54.064Z,7.46
2023-03-01T14:52:04.700Z,7.45
2023-03-01T14:53:19.858Z,7.46
2023-03-01T14:54:26.904Z,7.46
2023-03-01T14:55:35.671Z,7.47
2023-03-01T14:56:45.584Z,7.47
2023-03-01T14:57:51.532Z,7.49
2023-03-01T14:58:55.687Z,7.48